Time;durP1;ratioP1;P1;durP2;ratioP2;P2;SDS_P1;SDS_P2;PMS_P1;PMS_P2;Temp;Humidity;BMP_temperature;BMP_pressure;BME280_temperature;BME280_humidity;BME280_pressure;Samples;Min_cycle;Max_cycle;Signal;HPM_P1;HPM_P2
2021/08/25 00:00:00;;;;;;;6.00;5.45;;;;;;;;;;5091997;28;20028;-56
2021/08/25 00:02:26;;;;;;;6.55;5.95;;;;;;;;;;5091488;28;20453;-58
2021/08/25 00:04:51;;;;;;;7.40;6.70;;;;;;;;;;5091628;28;20045;-56
2021/08/25 00:07:16;;;;;;;6.30;5.70;;;;;;;;;;5091612;28;20099;-56
2021/08/25 00:09:42;;;;;;;7.20;6.15;;;;;;;;;;5091640;28;20012;-55
2021/08/25 00:12:08;;;;;;;7.93;6.10;;;;;;;;;;5091360;28;20022;-55
2021/08/25 00:14:34;;;;;;;6.93;6.28;;;;;;;;;;5091498;28;20020;-56
2021/08/25 00:16:59;;;;;;;7.07;6.43;;;;;;;;;;5091918;28;20478;-57
2021/08/25 00:19:24;;;;;;;10.18;6.68;;;;;;;;;;5090722;28;20043;-57
2021/08/25 00:21:50;;;;;;;6.80;6.10;;;;;;;;;;5094446;28;20091;-57
2021/08/25 00:24:15;;;;;;;7.10;6.00;;;;;;;;;;5102427;28;20056;-56
2021/08/25 00:26:45;;;;;;;8.93;6.07;;;;;;;;;;5081054;28;20501;-57
2021/08/25 00:29:11;;;;;;;7.20;5.47;;;;;;;;;;5094157;28;20092;-57
2021/08/25 00:31:36;;;;;;;6.95;5.68;;;;;;;;;;5091611;28;20043;-57
2021/08/25 00:34:01;;;;;;;5.88;5.35;;;;;;;;;;5102491;28;20458;-56
2021/08/25 00:36:26;;;;;;;5.57;4.93;;;;;;;;;;5110274;28;20007;-58
2021/08/25 00:38:51;;;;;;;6.35;5.32;;;;;;;;;;5091478;28;20024;-55
2021/08/25 00:41:17;;;;;;;5.65;5.15;;;;;;;;;;5072653;28;20028;-56
2021/08/25 00:43:42;;;;;;;7.60;4.72;;;;;;;;;;5091104;28;20012;-55
2021/08/25 00:46:08;;;;;;;6.50;4.43;;;;;;;;;;5094190;28;20027;-58
2021/08/25 00:48:33;;;;;;;4.32;3.92;;;;;;;;;;5103628;28;20093;-58
2021/08/25 00:50:58;;;;;;;5.57;4.45;;;;;;;;;;5074141;28;20474;-57
2021/08/25 00:53:23;;;;;;;4.90;4.50;;;;;;;;;;5095097;28;20531;-55
2021/08/25 00:55:49;;;;;;;5.82;4.25;;;;;;;;;;5094990;28;20028;-57
2021/08/25 00:58:14;;;;;;;5.93;4.95;;;;;;;;;;5094382;28;20027;-57
2021/08/25 01:00:51;;;;;;;8.98;5.35;;;;;;;;;;5095050;28;20593;-57
2021/08/25 01:03:23;;;;;;;5.75;5.22;;;;;;;;;;5096312;28;20501;-59
2021/08/25 01:05:49;;;;;;;6.75;6.10;;;;;;;;;;5094163;28;20024;-55
2021/08/25 01:08:14;;;;;;;6.72;6.13;;;;;;;;;;5094766;28;20027;-58
2021/08/25 01:10:40;;;;;;;6.65;5.78;;;;;;;;;;5098531;28;20019;-55
2021/08/25 01:13:06;;;;;;;8.93;6.18;;;;;;;;;;5112747;28;20016;-57
2021/08/25 01:15:33;;;;;;;5.38;4.85;;;;;;;;;;5103812;28;20020;-56
2021/08/25 01:17:58;;;;;;;6.80;5.40;;;;;;;;;;5094138;28;20020;-56
2021/08/25 01:20:24;;;;;;;5.45;4.95;;;;;;;;;;5093895;28;20093;-56
2021/08/25 01:22:50;;;;;;;5.93;5.22;;;;;;;;;;5094281;28;20111;-56
2021/08/25 01:25:16;;;;;;;6.18;5.57;;;;;;;;;;5094026;28;20019;-57
2021/08/25 01:27:43;;;;;;;5.50;4.78;;;;;;;;;;5093180;28;20056;-56
2021/08/25 01:30:09;;;;;;;7.65;5.50;;;;;;;;;;5094400;28;20024;-56
2021/08/25 01:32:35;;;;;;;6.88;6.05;;;;;;;;;;5094137;28;20027;-57
2021/08/25 01:35:00;;;;;;;8.85;5.88;;;;;;;;;;5097955;28;20689;-57
2021/08/25 01:37:26;;;;;;;7.53;6.45;;;;;;;;;;5114402;28;20065;-57
2021/08/25 01:39:54;;;;;;;7.60;6.57;;;;;;;;;;5114022;28;20052;-56
2021/08/25 01:42:20;;;;;;;7.40;6.18;;;;;;;;;;5087645;28;20027;-56
2021/08/25 01:44:46;;;;;;;8.88;7.13;;;;;;;;;;5093779;28;20027;-55
2021/08/25 01:47:15;;;;;;;8.30;7.13;;;;;;;;;;5093762;28;20016;-56
2021/08/25 01:49:40;;;;;;;7.78;6.97;;;;;;;;;;5092896;28;20024;-56
2021/08/25 01:52:06;;;;;;;7.38;6.70;;;;;;;;;;5105924;28;20035;-55
2021/08/25 01:54:31;;;;;;;7.10;6.40;;;;;;;;;;5093885;28;20099;-57
2021/08/25 01:56:56;;;;;;;8.63;6.60;;;;;;;;;;5093517;28;20017;-57
2021/08/25 01:59:22;;;;;;;8.45;6.70;;;;;;;;;;5093333;28;20020;-55
2021/08/25 02:01:47;;;;;;;7.05;6.35;;;;;;;;;;5098353;28;20023;-56
2021/08/25 02:04:12;;;;;;;9.70;6.63;;;;;;;;;;5113595;28;20115;-56
2021/08/25 02:06:37;;;;;;;6.63;5.15;;;;;;;;;;5094766;28;20024;-56
2021/08/25 02:09:02;;;;;;;6.97;5.07;;;;;;;;;;5093627;28;20466;-58
2021/08/25 02:11:28;;;;;;;7.78;5.60;;;;;;;;;;5093331;28;20055;-56
2021/08/25 02:13:53;;;;;;;8.20;6.47;;;;;;;;;;5093033;28;20026;-58
2021/08/25 02:16:18;;;;;;;12.20;7.35;;;;;;;;;;5092844;28;20424;-58
2021/08/25 02:18:44;;;;;;;6.57;5.93;;;;;;;;;;5093277;28;20020;-58
2021/08/25 02:21:09;;;;;;;8.30;6.78;;;;;;;;;;5088490;28;20058;-57
2021/08/25 02:23:34;;;;;;;7.65;6.20;;;;;;;;;;5092887;28;20486;-57
2021/08/25 02:25:59;;;;;;;6.72;6.03;;;;;;;;;;5075313;28;20075;-57
2021/08/25 02:28:25;;;;;;;8.93;6.32;;;;;;;;;;5092280;28;20044;-56
2021/08/25 02:30:50;;;;;;;8.02;7.22;;;;;;;;;;5093550;28;20024;-54
2021/08/25 02:33:15;;;;;;;7.03;6.15;;;;;;;;;;5093189;28;20015;-58
2021/08/25 02:35:40;;;;;;;7.55;6.90;;;;;;;;;;5092656;28;20145;-56
2021/08/25 02:38:06;;;;;;;7.15;5.32;;;;;;;;;;5092592;28;20042;-55
2021/08/25 02:40:31;;;;;;;9.25;6.53;;;;;;;;;;5093369;28;20062;-55
2021/08/25 02:42:56;;;;;;;7.57;6.35;;;;;;;;;;5091805;28;20390;-56
2021/08/25 02:45:22;;;;;;;7.40;6.68;;;;;;;;;;5093806;28;20081;-58
2021/08/25 02:47:47;;;;;;;8.05;6.70;;;;;;;;;;5113033;28;20054;-57
2021/08/25 02:50:12;;;;;;;9.95;7.40;;;;;;;;;;5098972;28;20347;-57
2021/08/25 02:52:37;;;;;;;7.05;6.35;;;;;;;;;;5092434;28;20040;-54
2021/08/25 02:55:03;;;;;;;9.55;7.80;;;;;;;;;;5095457;28;20450;-57
2021/08/25 02:57:28;;;;;;;7.45;6.75;;;;;;;;;;5092116;28;20451;-57
2021/08/25 02:59:53;;;;;;;8.52;6.45;;;;;;;;;;5083961;28;20015;-56
2021/08/25 03:02:18;;;;;;;6.43;5.93;;;;;;;;;;5093183;28;20024;-57
2021/08/25 03:04:43;;;;;;;5.70;5.13;;;;;;;;;;5091868;28;20382;-58
2021/08/25 03:07:09;;;;;;;7.97;5.95;;;;;;;;;;5092295;28;20057;-58
2021/08/25 03:09:34;;;;;;;8.10;6.57;;;;;;;;;;5092172;28;20030;-57
2021/08/25 03:11:59;;;;;;;6.45;5.85;;;;;;;;;;5097423;28;20035;-55
2021/08/25 03:14:24;;;;;;;9.90;6.78;;;;;;;;;;5110372;28;20058;-58
2021/08/25 03:16:49;;;;;;;6.07;5.50;;;;;;;;;;5091367;28;20034;-57
2021/08/25 03:19:15;;;;;;;6.72;5.80;;;;;;;;;;5091518;28;20062;-57
2021/08/25 03:21:41;;;;;;;8.07;6.45;;;;;;;;;;5091494;28;20069;-55
2021/08/25 03:24:08;;;;;;;7.47;6.00;;;;;;;;;;5091540;28;20103;-54
2021/08/25 03:26:33;;;;;;;6.07;5.47;;;;;;;;;;5091591;28;20106;-57
2021/08/25 03:28:58;;;;;;;6.07;5.28;;;;;;;;;;5109564;28;20122;-56
2021/08/25 03:31:23;;;;;;;7.10;6.18;;;;;;;;;;5094867;28;20062;-56
2021/08/25 03:33:48;;;;;;;6.60;5.57;;;;;;;;;;5091826;28;20012;-57
2021/08/25 03:36:14;;;;;;;6.90;5.93;;;;;;;;;;5082338;28;20020;-58
2021/08/25 03:38:39;;;;;;;6.53;5.93;;;;;;;;;;5092280;28;20025;-56
2021/08/25 03:41:04;;;;;;;8.68;6.40;;;;;;;;;;5091531;28;20031;-55
2021/08/25 03:43:29;;;;;;;8.35;6.13;;;;;;;;;;5091120;28;20098;-56
2021/08/25 03:45:54;;;;;;;7.07;5.93;;;;;;;;;;5091689;28;20027;-57
2021/08/25 03:48:19;;;;;;;6.97;6.28;;;;;;;;;;5099333;28;20031;-54
2021/08/25 03:50:45;;;;;;;7.95;6.05;;;;;;;;;;5092288;28;20016;-56
2021/08/25 03:53:10;;;;;;;9.07;6.78;;;;;;;;;;5091406;28;20024;-54
2021/08/25 03:55:35;;;;;;;7.10;6.38;;;;;;;;;;5090482;28;20066;-57
2021/08/25 03:58:00;;;;;;;8.80;6.30;;;;;;;;;;5100729;28;20186;-57
2021/08/25 04:00:25;;;;;;;6.72;6.10;;;;;;;;;;5098676;28;20028;-57
2021/08/25 04:02:51;;;;;;;7.35;6.60;;;;;;;;;;5091481;28;20060;-56
2021/08/25 04:05:16;;;;;;;9.23;6.75;;;;;;;;;;5091383;28;20048;-58
2021/08/25 04:07:41;;;;;;;7.28;6.43;;;;;;;;;;5083446;28;20111;-57
2021/08/25 04:10:06;;;;;;;6.50;5.90;;;;;;;;;;5107308;28;20034;-57
2021/08/25 04:12:32;;;;;;;10.27;6.57;;;;;;;;;;5072839;28;20462;-57
2021/08/25 04:14:57;;;;;;;8.07;6.07;;;;;;;;;;5091261;28;20013;-56
2021/08/25 04:17:22;;;;;;;6.45;5.85;;;;;;;;;;5090679;28;20024;-57
2021/08/25 04:19:48;;;;;;;6.88;6.20;;;;;;;;;;5090883;28;20016;-58
2021/08/25 04:22:13;;;;;;;8.55;6.22;;;;;;;;;;5091679;28;20122;-58
2021/08/25 04:24:38;;;;;;;8.18;5.65;;;;;;;;;;5091046;28;20115;-56
2021/08/25 04:27:04;;;;;;;10.35;6.32;;;;;;;;;;5093816;28;20069;-58
2021/08/25 04:29:29;;;;;;;6.70;6.00;;;;;;;;;;5094491;28;20158;-58
2021/08/25 04:31:54;;;;;;;8.27;6.55;;;;;;;;;;5094982;28;20024;-57
2021/08/25 04:34:19;;;;;;;6.40;5.70;;;;;;;;;;5094997;28;20043;-57
2021/08/25 04:36:45;;;;;;;9.45;6.07;;;;;;;;;;5100091;28;20024;-56
2021/08/25 04:39:10;;;;;;;8.65;6.13;;;;;;;;;;5096598;28;20545;-56
2021/08/25 04:41:35;;;;;;;7.72;5.97;;;;;;;;;;5100271;28;20031;-55
2021/08/25 04:44:00;;;;;;;9.38;6.03;;;;;;;;;;5094709;28;20191;-55
2021/08/25 04:46:25;;;;;;;9.40;7.18;;;;;;;;;;5094854;28;20500;-58
2021/08/25 04:48:51;;;;;;;11.80;6.63;;;;;;;;;;5094330;28;20038;-56
2021/08/25 04:51:16;;;;;;;7.10;6.40;;;;;;;;;;5094741;28;20055;-56
2021/08/25 04:53:41;;;;;;;8.52;6.90;;;;;;;;;;5094070;28;20032;-54
2021/08/25 04:56:07;;;;;;;9.93;7.32;;;;;;;;;;5094932;28;20069;-57
2021/08/25 04:58:33;;;;;;;8.32;6.10;;;;;;;;;;5094475;28;20211;-56
2021/08/25 05:00:58;;;;;;;7.28;6.40;;;;;;;;;;5095100;28;20016;-56
2021/08/25 05:03:24;;;;;;;11.60;7.80;;;;;;;;;;5094475;28;20463;-56
2021/08/25 05:05:49;;;;;;;7.65;6.85;;;;;;;;;;5094592;28;20026;-57
2021/08/25 05:08:14;;;;;;;7.80;6.10;;;;;;;;;;5097608;28;20012;-57
2021/08/25 05:10:39;;;;;;;6.43;5.40;;;;;;;;;;5114507;28;20382;-55
2021/08/25 05:13:04;;;;;;;7.15;5.90;;;;;;;;;;5104029;28;20046;-57
2021/08/25 05:15:30;;;;;;;9.48;6.45;;;;;;;;;;5095394;28;20486;-57
2021/08/25 05:17:55;;;;;;;8.82;5.68;;;;;;;;;;5094532;28;20012;-58
2021/08/25 05:20:20;;;;;;;7.10;5.57;;;;;;;;;;5094361;28;20362;-58
2021/08/25 05:22:45;;;;;;;8.15;5.13;;;;;;;;;;5091640;28;20031;-58
2021/08/25 05:25:11;;;;;;;6.57;5.00;;;;;;;;;;5093513;28;20065;-57
2021/08/25 05:27:37;;;;;;;5.68;4.75;;;;;;;;;;5092013;28;20040;-57
2021/08/25 05:30:04;;;;;;;6.80;4.78;;;;;;;;;;5093257;28;20028;-57
2021/08/25 05:32:29;;;;;;;8.43;5.15;;;;;;;;;;5093519;28;20089;-57
2021/08/25 05:34:54;;;;;;;7.75;4.90;;;;;;;;;;5092459;28;20047;-59
2021/08/25 05:37:19;;;;;;;6.95;5.50;;;;;;;;;;5094728;28;20048;-59
2021/08/25 05:39:44;;;;;;;6.55;4.88;;;;;;;;;;5110977;28;20027;-58
2021/08/25 05:42:10;;;;;;;6.97;4.80;;;;;;;;;;5101157;28;20050;-59
2021/08/25 05:44:35;;;;;;;10.43;6.03;;;;;;;;;;5093426;28;20111;-58
2021/08/25 05:47:00;;;;;;;14.52;5.43;;;;;;;;;;5093188;28;20028;-56
2021/08/25 05:49:25;;;;;;;14.40;5.40;;;;;;;;;;5093057;28;20035;-57
2021/08/25 05:51:51;;;;;;;7.25;5.93;;;;;;;;;;5093797;28;20036;-57
2021/08/25 05:54:16;;;;;;;8.98;5.75;;;;;;;;;;5093609;28;20115;-57
2021/08/25 05:56:42;;;;;;;7.97;6.47;;;;;;;;;;5105255;28;20478;-54
2021/08/25 05:59:07;;;;;;;8.85;6.30;;;;;;;;;;5093607;28;20390;-58
2021/08/25 06:01:32;;;;;;;7.68;6.18;;;;;;;;;;5107919;28;20031;-58
2021/08/25 06:03:58;;;;;;;8.13;6.70;;;;;;;;;;5096217;28;20431;-58
2021/08/25 06:06:34;;;;;;;7.18;6.32;;;;;;;;;;5102075;28;20028;-57
2021/08/25 06:08:59;;;;;;;8.55;6.03;;;;;;;;;;5092944;28;20051;-58
2021/08/25 06:11:24;;;;;;;6.30;5.60;;;;;;;;;;5092768;28;20054;-57
2021/08/25 06:13:50;;;;;;;6.57;6.00;;;;;;;;;;5095917;28;20023;-58
2021/08/25 06:16:15;;;;;;;7.50;6.80;;;;;;;;;;5081430;28;20454;-58
2021/08/25 06:18:40;;;;;;;8.05;7.10;;;;;;;;;;5109354;28;20030;-59
2021/08/25 06:21:05;;;;;;;13.00;8.00;;;;;;;;;;5112995;28;20027;-58
2021/08/25 06:23:30;;;;;;;10.85;6.57;;;;;;;;;;5113149;28;20077;-60
2021/08/25 06:25:56;;;;;;;9.15;6.88;;;;;;;;;;5105111;28;20103;-57
2021/08/25 06:28:21;;;;;;;9.82;7.25;;;;;;;;;;5110617;28;20101;-60
2021/08/25 06:30:46;;;;;;;8.35;7.10;;;;;;;;;;5112651;28;20030;-59
2021/08/25 06:33:11;;;;;;;7.55;6.85;;;;;;;;;;5112494;28;20108;-59
2021/08/25 06:35:36;;;;;;;9.82;7.40;;;;;;;;;;5113127;28;20035;-59
2021/08/25 06:38:02;;;;;;;8.52;7.13;;;;;;;;;;5113265;28;20020;-57
2021/08/25 06:40:27;;;;;;;7.20;6.53;;;;;;;;;;5106251;28;20034;-57
2021/08/25 06:42:52;;;;;;;9.90;6.93;;;;;;;;;;5112994;28;20016;-54
2021/08/25 06:45:17;;;;;;;7.70;6.80;;;;;;;;;;5113119;28;20432;-58
2021/08/25 06:47:42;;;;;;;9.10;6.07;;;;;;;;;;5112852;28;20437;-57
2021/08/25 06:50:08;;;;;;;7.43;6.43;;;;;;;;;;5112310;28;20023;-58
2021/08/25 06:52:33;;;;;;;7.70;6.80;;;;;;;;;;5110668;28;20034;-57
2021/08/25 06:54:58;;;;;;;7.60;6.53;;;;;;;;;;5113056;28;20015;-57
2021/08/25 06:57:23;;;;;;;7.97;5.93;;;;;;;;;;5112248;28;20386;-57
2021/08/25 06:59:49;;;;;;;7.63;5.63;;;;;;;;;;5112884;28;20401;-56
2021/08/25 07:02:14;;;;;;;7.65;6.75;;;;;;;;;;5112657;28;20027;-57
2021/08/25 07:04:46;;;;;;;10.30;7.20;;;;;;;;;;5112064;28;20016;-58
2021/08/25 07:07:12;;;;;;;6.85;5.78;;;;;;;;;;5112577;28;20023;-57
2021/08/25 07:09:37;;;;;;;8.95;5.82;;;;;;;;;;5112592;28;20102;-57
2021/08/25 07:12:02;;;;;;;6.60;5.90;;;;;;;;;;5110607;28;20426;-57
2021/08/25 07:14:27;;;;;;;6.10;5.50;;;;;;;;;;5112463;28;20020;-57
2021/08/25 07:16:52;;;;;;;6.70;5.60;;;;;;;;;;5110712;28;20100;-57
2021/08/25 07:19:18;;;;;;;7.05;6.28;;;;;;;;;;5112750;28;20027;-59
2021/08/25 07:21:43;;;;;;;6.75;5.57;;;;;;;;;;5112098;28;20422;-56
2021/08/25 07:24:09;;;;;;;6.50;5.60;;;;;;;;;;5112524;28;20019;-57
2021/08/25 07:26:34;;;;;;;7.35;5.38;;;;;;;;;;5112028;28;20016;-58
2021/08/25 07:28:59;;;;;;;7.03;5.70;;;;;;;;;;5111256;28;20047;-58
2021/08/25 07:31:24;;;;;;;5.95;4.97;;;;;;;;;;5112623;28;20355;-58
2021/08/25 07:33:50;;;;;;;7.18;5.28;;;;;;;;;;5112370;28;20026;-58
2021/08/25 07:36:15;;;;;;;7.85;5.63;;;;;;;;;;5111772;28;20011;-58
2021/08/25 07:38:40;;;;;;;10.32;5.43;;;;;;;;;;5112702;28;20116;-55
2021/08/25 07:41:06;;;;;;;6.95;5.15;;;;;;;;;;5112149;28;20051;-56
2021/08/25 07:43:31;;;;;;;6.63;5.45;;;;;;;;;;5110939;28;20023;-56
2021/08/25 07:45:56;;;;;;;6.22;5.03;;;;;;;;;;5112125;28;20027;-55
2021/08/25 07:48:21;;;;;;;6.97;4.82;;;;;;;;;;5112107;28;20046;-55
2021/08/25 07:50:49;;;;;;;7.47;5.05;;;;;;;;;;5112130;28;20019;-55
2021/08/25 07:53:15;;;;;;;6.20;5.40;;;;;;;;;;5112157;28;20020;-56
2021/08/25 07:55:40;;;;;;;6.13;4.40;;;;;;;;;;5112092;28;20047;-55
2021/08/25 07:58:05;;;;;;;5.38;4.80;;;;;;;;;;5111329;28;20102;-57
2021/08/25 08:00:30;;;;;;;6.38;4.30;;;;;;;;;;5112953;28;20031;-56
2021/08/25 08:02:56;;;;;;;7.82;4.40;;;;;;;;;;5116189;28;20073;-57
2021/08/25 08:05:21;;;;;;;5.20;4.40;;;;;;;;;;5116315;28;20495;-56
2021/08/25 08:07:46;;;;;;;3.88;3.35;;;;;;;;;;5116621;28;20024;-58
2021/08/25 08:10:12;;;;;;;6.15;4.55;;;;;;;;;;5115429;28;20080;-58
2021/08/25 08:12:37;;;;;;;4.63;3.60;;;;;;;;;;5115080;28;20470;-58
2021/08/25 08:15:04;;;;;;;5.97;3.83;;;;;;;;;;5115612;28;20034;-55
2021/08/25 08:17:30;;;;;;;5.68;3.78;;;;;;;;;;5115778;28;20043;-58
2021/08/25 08:19:56;;;;;;;6.35;4.03;;;;;;;;;;5116017;28;20046;-58
2021/08/25 08:22:21;;;;;;;3.72;3.15;;;;;;;;;;5097161;28;20016;-58
2021/08/25 08:24:46;;;;;;;5.85;3.92;;;;;;;;;;5116006;28;20106;-58
2021/08/25 08:27:11;;;;;;;6.70;3.42;;;;;;;;;;5115599;28;20029;-57
2021/08/25 08:29:37;;;;;;;5.25;2.97;;;;;;;;;;5115496;28;20024;-58
2021/08/25 08:32:02;;;;;;;4.75;3.72;;;;;;;;;;5115594;28;20114;-59
2021/08/25 08:34:27;;;;;;;4.68;3.40;;;;;;;;;;5097313;28;20024;-57
2021/08/25 08:36:52;;;;;;;5.40;3.00;;;;;;;;;;5115371;28;20047;-56
2021/08/25 08:39:18;;;;;;;5.22;3.53;;;;;;;;;;5115820;28;20031;-58
2021/08/25 08:41:43;;;;;;;3.30;2.92;;;;;;;;;;5115264;28;20046;-57
2021/08/25 08:44:10;;;;;;;5.15;2.35;;;;;;;;;;5115354;27;20034;-59
2021/08/25 08:46:37;;;;;;;3.63;2.78;;;;;;;;;;5115376;28;20028;-57
2021/08/25 08:49:02;;;;;;;3.85;2.95;;;;;;;;;;5115483;28;20176;-57
2021/08/25 08:51:27;;;;;;;3.88;3.22;;;;;;;;;;5115572;28;20485;-56
2021/08/25 08:53:53;;;;;;;5.23;3.30;;;;;;;;;;5115043;28;20145;-58
2021/08/25 08:56:18;;;;;;;5.43;2.90;;;;;;;;;;5115084;28;20261;-57
2021/08/25 08:58:44;;;;;;;4.18;2.85;;;;;;;;;;5114756;28;20099;-56
2021/08/25 09:01:09;;;;;;;4.40;2.33;;;;;;;;;;5114889;28;20416;-57
2021/08/25 09:03:35;;;;;;;4.70;2.60;;;;;;;;;;5114676;28;20020;-56
2021/08/25 09:06:02;;;;;;;4.57;2.63;;;;;;;;;;5115214;28;20167;-58
2021/08/25 09:08:28;;;;;;;3.88;2.28;;;;;;;;;;5096926;28;20026;-56
2021/08/25 09:11:05;;;;;;;5.13;3.28;;;;;;;;;;5114507;28;20110;-57
2021/08/25 09:13:34;;;;;;;3.17;2.30;;;;;;;;;;5114503;28;20020;-58
2021/08/25 09:15:59;;;;;;;3.53;2.60;;;;;;;;;;5115066;28;20023;-56
2021/08/25 09:18:24;;;;;;;3.25;2.22;;;;;;;;;;5114830;28;20029;-58
2021/08/25 09:20:50;;;;;;;3.47;2.25;;;;;;;;;;5106422;28;20023;-58
2021/08/25 09:23:19;;;;;;;4.32;2.45;;;;;;;;;;5114207;28;20024;-57
2021/08/25 09:25:45;;;;;;;4.00;2.47;;;;;;;;;;5103768;28;20023;-58
2021/08/25 09:28:12;;;;;;;4.40;2.75;;;;;;;;;;5113911;28;20448;-57
2021/08/25 09:30:52;;;;;;;5.13;3.03;;;;;;;;;;5114762;28;20023;-58
2021/08/25 09:33:18;;;;;;;4.75;2.63;;;;;;;;;;5114568;28;20024;-59
2021/08/25 09:35:43;;;;;;;4.88;2.70;;;;;;;;;;5113061;28;20706;-56
2021/08/25 09:38:15;;;;;;;4.95;3.00;;;;;;;;;;5114247;28;20031;-59
2021/08/25 09:40:44;;;;;;;4.20;2.28;;;;;;;;;;5113891;28;20509;-58
2021/08/25 09:43:09;;;;;;;4.63;3.15;;;;;;;;;;5113880;28;20100;-57
2021/08/25 09:45:34;;;;;;;8.20;2.67;;;;;;;;;;5114047;28;20055;-57
2021/08/25 09:48:00;;;;;;;4.07;3.00;;;;;;;;;;5114506;28;20036;-57
2021/08/25 09:50:26;;;;;;;4.50;2.72;;;;;;;;;;5113812;28;20293;-56
2021/08/25 09:52:51;;;;;;;4.38;2.40;;;;;;;;;;5114171;28;20484;-58
2021/08/25 09:55:28;;;;;;;4.80;3.00;;;;;;;;;;5113645;28;20047;-58
2021/08/25 09:57:53;;;;;;;4.78;2.15;;;;;;;;;;5113779;28;20015;-57
2021/08/25 10:00:19;;;;;;;4.38;1.65;;;;;;;;;;5113874;28;20081;-57
2021/08/25 10:02:45;;;;;;;4.05;2.90;;;;;;;;;;5114127;28;20104;-58
2021/08/25 10:05:10;;;;;;;5.07;3.03;;;;;;;;;;5113695;28;20089;-59
2021/08/25 10:07:35;;;;;;;7.55;2.22;;;;;;;;;;5113931;28;20049;-58
2021/08/25 10:10:01;;;;;;;4.68;2.58;;;;;;;;;;5113702;28;20053;-58
2021/08/25 10:12:26;;;;;;;6.28;3.45;;;;;;;;;;5114148;28;20372;-58
2021/08/25 10:14:51;;;;;;;3.60;1.92;;;;;;;;;;5113661;28;20031;-57
2021/08/25 10:17:35;;;;;;;4.63;2.28;;;;;;;;;;5094754;28;20047;-59
2021/08/25 10:20:20;;;;;;;4.18;2.60;;;;;;;;;;5093374;28;20152;-59
2021/08/25 10:22:49;;;;;;;3.83;1.25;;;;;;;;;;5110725;28;20123;-59
2021/08/25 10:25:14;;;;;;;3.38;2.25;;;;;;;;;;5113151;28;20104;-59
2021/08/25 10:27:58;;;;;;;3.13;2.15;;;;;;;;;;5110889;28;20055;-58
2021/08/25 10:30:24;;;;;;;3.13;2.28;;;;;;;;;;5110511;28;20513;-59
2021/08/25 10:32:52;;;;;;;3.38;1.85;;;;;;;;;;5113413;28;20055;-58
2021/08/25 10:35:17;;;;;;;4.55;2.03;;;;;;;;;;5113522;28;20102;-58
2021/08/25 10:37:43;;;;;;;3.10;1.83;;;;;;;;;;5113113;28;20532;-58
2021/08/25 10:40:09;;;;;;;3.55;2.80;;;;;;;;;;5112618;28;20378;-60
2021/08/25 10:42:54;;;;;;;3.35;2.35;;;;;;;;;;5113230;28;20045;-59
2021/08/25 10:45:19;;;;;;;;;;;;;;;;;;5113532;28;20069;-57
2021/08/25 10:48:03;;;;;;;2.88;2.00;;;;;;;;;;5112588;28;20257;-57
2021/08/25 10:50:50;;;;;;;2.80;2.05;;;;;;;;;;5113094;28;20020;-57
2021/08/25 10:53:28;;;;;;;4.50;1.90;;;;;;;;;;5113726;28;20098;-57
2021/08/25 10:56:05;;;;;;;4.80;2.20;;;;;;;;;;5111843;28;20019;-59
2021/08/25 10:58:43;;;;;;;2.83;2.10;;;;;;;;;;5112082;28;20050;-58
2021/08/25 11:01:24;;;;;;;4.03;2.33;;;;;;;;;;5112570;28;20407;-58
2021/08/25 11:03:49;;;;;;;3.03;1.40;;;;;;;;;;5112782;28;20012;-58
2021/08/25 11:06:33;;;;;;;4.93;2.22;;;;;;;;;;5112546;28;20057;-58
2021/08/25 11:09:17;;;;;;;3.42;1.77;;;;;;;;;;5110419;28;20016;-57
2021/08/25 11:11:45;;;;;;;4.05;2.50;;;;;;;;;;5112303;28;20016;-58
2021/08/25 11:14:24;;;;;;;3.97;2.40;;;;;;;;;;5111724;28;20230;-59
2021/08/25 11:16:50;;;;;;;4.05;2.00;;;;;;;;;;5109177;28;20031;-59
2021/08/25 11:19:22;;;;;;;3.00;2.10;;;;;;;;;;5111826;28;20016;-59
2021/08/25 11:21:48;;;;;;;4.00;1.52;;;;;;;;;;5112334;28;20119;-58
2021/08/25 11:24:13;;;;;;;2.10;1.58;;;;;;;;;;5112430;28;20053;-55
2021/08/25 11:26:39;;;;;;;2.70;2.35;;;;;;;;;;5112293;28;20493;-59
2021/08/25 11:29:14;;;;;;;4.28;2.70;;;;;;;;;;5111496;28;20062;-57
2021/08/25 11:31:39;;;;;;;;;;;;;;;;;;5113071;28;20019;-58
2021/08/25 11:34:05;;;;;;;2.90;2.33;;;;;;;;;;5111901;28;19903;-58
2021/08/25 11:36:30;;;;;;;2.45;2.25;;;;;;;;;;5112132;28;20351;-58
2021/08/25 11:38:55;;;;;;;4.63;3.00;;;;;;;;;;5112517;28;20094;-58
2021/08/25 11:41:20;;;;;;;3.50;3.17;;;;;;;;;;5111734;28;20385;-59
2021/08/25 11:43:47;;;;;;;3.63;2.50;;;;;;;;;;5112123;28;20296;-58
2021/08/25 11:46:21;;;;;;;3.17;2.40;;;;;;;;;;5111499;28;20035;-59
2021/08/25 11:48:46;;;;;;;;;;;;;;;;;;5111884;28;20094;-58
2021/08/25 11:51:12;;;;;;;4.63;2.55;;;;;;;;;;5111776;28;19990;-59
2021/08/25 11:53:40;;;;;;;4.13;2.88;;;;;;;;;;5112298;28;20016;-58
2021/08/25 11:56:05;;;;;;;2.53;2.30;;;;;;;;;;5111501;28;20061;-58
2021/08/25 11:58:34;;;;;;;2.65;2.35;;;;;;;;;;5111096;28;20023;-57
2021/08/25 12:01:00;;;;;;;1.38;1.23;;;;;;;;;;5111907;28;20019;-59
2021/08/25 12:03:37;;;;;;;2.20;2.00;;;;;;;;;;5111480;28;20011;-58
2021/08/25 12:06:02;;;;;;;3.42;2.33;;;;;;;;;;5093630;28;20024;-58
2021/08/25 12:08:37;;;;;;;4.68;2.17;;;;;;;;;;5112286;28;20073;-58
2021/08/25 12:11:04;;;;;;;3.58;1.63;;;;;;;;;;5112987;28;20035;-58
2021/08/25 12:13:33;;;;;;;3.30;2.45;;;;;;;;;;5111018;28;20020;-59
2021/08/25 12:15:59;;;;;;;4.45;2.60;;;;;;;;;;5111588;28;20069;-58
2021/08/25 12:18:25;;;;;;;2.17;1.58;;;;;;;;;;5111956;28;20011;-58
2021/08/25 12:20:54;;;;;;;2.28;1.20;;;;;;;;;;5111559;28;20028;-58
2021/08/25 12:23:21;;;;;;;2.15;1.92;;;;;;;;;;5111592;28;20046;-59
2021/08/25 12:25:51;;;;;;;3.28;2.17;;;;;;;;;;5112016;28;20030;-60
2021/08/25 12:28:29;;;;;;;3.88;2.03;;;;;;;;;;5111325;28;20039;-59
2021/08/25 12:31:08;;;;;;;2.47;1.88;;;;;;;;;;5110249;28;20024;-59
2021/08/25 12:33:33;;;;;;;3.13;1.50;;;;;;;;;;5111606;28;20031;-58
2021/08/25 12:36:17;;;;;;;2.67;1.63;;;;;;;;;;5111449;28;20393;-59
2021/08/25 12:38:42;;;;;;;2.05;1.33;;;;;;;;;;5111521;28;20794;-58
2021/08/25 12:41:08;;;;;;;2.27;1.70;;;;;;;;;;5111368;28;20095;-58
2021/08/25 12:43:33;;;;;;;4.27;1.87;;;;;;;;;;5111034;28;20273;-58
2021/08/25 12:45:58;;;;;;;2.80;1.40;;;;;;;;;;5111682;28;20027;-59
2021/08/25 12:48:23;;;;;;;1.83;0.80;;;;;;;;;;5115137;28;20522;-58
2021/08/25 12:50:48;;;;;;;2.43;1.20;;;;;;;;;;5114920;28;20138;-58
2021/08/25 12:53:13;;;;;;;1.87;1.10;;;;;;;;;;5115554;28;20090;-59
2021/08/25 12:55:39;;;;;;;1.17;0.90;;;;;;;;;;5115423;28;20322;-59
2021/08/25 12:58:04;;;;;;;1.67;1.13;;;;;;;;;;5114939;28;20020;-59
2021/08/25 13:00:29;;;;;;;2.10;1.37;;;;;;;;;;5115253;28;20265;-61
2021/08/25 13:02:54;;;;;;;2.40;1.23;;;;;;;;;;5115204;28;20484;-61
2021/08/25 13:05:19;;;;;;;1.53;0.97;;;;;;;;;;5115252;28;20269;-61
2021/08/25 13:07:45;;;;;;;3.03;1.50;;;;;;;;;;5115236;28;20048;-61
2021/08/25 13:10:10;;;;;;;1.50;1.20;;;;;;;;;;5114518;28;20422;-58
2021/08/25 13:12:35;;;;;;;2.17;1.25;;;;;;;;;;5115414;28;20246;-61
2021/08/25 13:15:00;;;;;;;3.20;1.20;;;;;;;;;;5115036;28;20534;-61
2021/08/25 13:17:26;;;;;;;1.20;0.98;;;;;;;;;;5114295;28;20613;-60
2021/08/25 13:19:51;;;;;;;1.50;1.33;;;;;;;;;;5114515;28;20072;-60
2021/08/25 13:22:16;;;;;;;3.10;1.25;;;;;;;;;;5114941;28;20048;-59
2021/08/25 13:24:41;;;;;;;1.70;1.40;;;;;;;;;;5114692;28;20106;-59
2021/08/25 13:27:07;;;;;;;2.38;1.52;;;;;;;;;;5114629;28;20585;-59
2021/08/25 13:29:32;;;;;;;1.70;1.45;;;;;;;;;;5114215;28;20068;-60
2021/08/25 13:31:57;;;;;;;1.77;1.38;;;;;;;;;;5114695;28;20445;-59
2021/08/25 13:34:22;;;;;;;2.00;1.30;;;;;;;;;;5114490;28;20020;-59
2021/08/25 13:36:48;;;;;;;1.73;1.20;;;;;;;;;;5114404;28;20378;-59
2021/08/25 13:39:13;;;;;;;2.42;1.33;;;;;;;;;;5114552;28;20261;-59
2021/08/25 13:41:38;;;;;;;1.50;0.80;;;;;;;;;;5114070;28;20103;-59
2021/08/25 13:44:03;;;;;;;1.20;1.10;;;;;;;;;;5114032;28;20262;-62
2021/08/25 13:46:31;;;;;;;1.67;1.30;;;;;;;;;;5114448;28;20016;-59
2021/08/25 13:48:56;;;;;;;2.08;1.67;;;;;;;;;;5113648;28;20257;-59
2021/08/25 13:51:22;;;;;;;1.87;1.10;;;;;;;;;;5112997;28;20501;-59
2021/08/25 13:53:47;;;;;;;2.60;1.23;;;;;;;;;;5114679;28;20254;-60
2021/08/25 13:56:13;;;;;;;1.93;1.30;;;;;;;;;;5113915;28;20012;-59
2021/08/25 13:58:39;;;;;;;2.95;1.58;;;;;;;;;;5112700;28;20253;-59
2021/08/25 14:01:05;;;;;;;1.67;1.27;;;;;;;;;;5113838;28;20101;-59
2021/08/25 14:03:30;;;;;;;2.17;1.17;;;;;;;;;;5113190;28;20277;-59
2021/08/25 14:05:56;;;;;;;1.60;1.20;;;;;;;;;;5109396;28;20024;-59
2021/08/25 14:08:21;;;;;;;1.95;1.23;;;;;;;;;;5113831;28;20273;-59
2021/08/25 14:10:46;;;;;;;2.23;1.50;;;;;;;;;;5113658;28;20393;-59
2021/08/25 14:13:12;;;;;;;2.03;1.30;;;;;;;;;;5112769;28;20360;-59
2021/08/25 14:15:37;;;;;;;3.37;1.80;;;;;;;;;;5113880;28;20060;-60
2021/08/25 14:18:03;;;;;;;3.03;1.35;;;;;;;;;;5113313;28;20035;-60
2021/08/25 14:20:28;;;;;;;2.83;1.70;;;;;;;;;;5112845;28;20027;-59
2021/08/25 14:22:53;;;;;;;2.90;1.67;;;;;;;;;;5114694;27;20110;-60
2021/08/25 14:25:19;;;;;;;3.38;2.40;;;;;;;;;;5113637;28;20042;-60
2021/08/25 14:27:44;;;;;;;2.05;1.50;;;;;;;;;;5112696;27;20080;-60
2021/08/25 14:30:09;;;;;;;2.33;1.50;;;;;;;;;;5112619;28;20023;-60
2021/08/25 14:32:36;;;;;;;4.22;1.50;;;;;;;;;;5113868;28;20343;-60
2021/08/25 14:35:01;;;;;;;2.25;1.45;;;;;;;;;;5095679;28;20024;-59
2021/08/25 14:37:26;;;;;;;1.87;1.27;;;;;;;;;;5102986;28;20057;-59